sensor_id;sensor_type;location;lat;lon;timestamp;P1;durP1;ratioP1;P2;durP2;ratioP2
55756;SDS011;41676;44.610;44.078;2022-07-12T00:02:00;15.63;;;5.13;;
55756;SDS011;41676;44.610;44.078;2022-07-12T00:07:01;30.25;;;5.45;;
55756;SDS011;41676;44.610;44.078;2022-07-12T00:12:02;52.92;;;5.53;;
55756;SDS011;41676;44.610;44.078;2022-07-12T00:17:04;16.88;;;5.47;;
55756;SDS011;41676;44.610;44.078;2022-07-12T00:22:05;28.45;;;6.32;;
55756;SDS011;41676;44.610;44.078;2022-07-12T00:27:05;14.38;;;5.28;;
55756;SDS011;41676;44.610;44.078;2022-07-12T00:32:06;16.92;;;5.30;;
55756;SDS011;41676;44.610;44.078;2022-07-12T00:37:08;19.17;;;6.00;;
55756;SDS011;41676;44.610;44.078;2022-07-12T00:42:08;20.63;;;5.47;;
55756;SDS011;41676;44.610;44.078;2022-07-12T00:47:17;82.38;;;12.10;;
55756;SDS011;41676;44.610;44.078;2022-07-12T00:52:33;19.02;;;7.20;;
55756;SDS011;41676;44.610;44.078;2022-07-12T00:57:36;53.00;;;8.65;;
55756;SDS011;41676;44.610;44.078;2022-07-12T01:02:38;28.05;;;7.00;;
55756;SDS011;41676;44.610;44.078;2022-07-12T01:07:39;50.53;;;8.77;;
55756;SDS011;41676;44.610;44.078;2022-07-12T01:12:41;50.47;;;9.38;;
55756;SDS011;41676;44.610;44.078;2022-07-12T01:17:43;34.00;;;6.95;;
55756;SDS011;41676;44.610;44.078;2022-07-12T01:22:55;16.33;;;5.07;;
55756;SDS011;41676;44.610;44.078;2022-07-12T01:27:59;11.18;;;4.93;;
55756;SDS011;41676;44.610;44.078;2022-07-12T01:33:00;54.53;;;8.18;;
55756;SDS011;41676;44.610;44.078;2022-07-12T01:38:01;23.60;;;5.50;;
55756;SDS011;41676;44.610;44.078;2022-07-12T01:43:02;41.40;;;6.72;;
55756;SDS011;41676;44.610;44.078;2022-07-12T01:48:04;45.78;;;7.07;;
55756;SDS011;41676;44.610;44.078;2022-07-12T01:53:05;60.60;;;7.53;;
55756;SDS011;41676;44.610;44.078;2022-07-12T01:58:07;19.95;;;5.53;;
55756;SDS011;41676;44.610;44.078;2022-07-12T02:03:09;6.63;;;3.85;;
55756;SDS011;41676;44.610;44.078;2022-07-12T02:08:10;42.63;;;6.72;;
55756;SDS011;41676;44.610;44.078;2022-07-12T02:13:11;29.40;;;6.65;;
55756;SDS011;41676;44.610;44.078;2022-07-12T02:18:12;17.77;;;5.68;;
55756;SDS011;41676;44.610;44.078;2022-07-12T02:23:12;14.27;;;4.93;;
55756;SDS011;41676;44.610;44.078;2022-07-12T02:28:13;13.38;;;5.47;;
55756;SDS011;41676;44.610;44.078;2022-07-12T02:33:14;14.85;;;6.25;;
55756;SDS011;41676;44.610;44.078;2022-07-12T02:38:16;11.13;;;5.97;;
55756;SDS011;41676;44.610;44.078;2022-07-12T02:43:16;15.20;;;6.28;;
55756;SDS011;41676;44.610;44.078;2022-07-12T02:48:17;18.33;;;6.65;;
55756;SDS011;41676;44.610;44.078;2022-07-12T02:53:19;21.02;;;6.60;;
55756;SDS011;41676;44.610;44.078;2022-07-12T02:58:20;15.02;;;6.00;;
55756;SDS011;41676;44.610;44.078;2022-07-12T03:03:21;15.13;;;6.68;;
55756;SDS011;41676;44.610;44.078;2022-07-12T03:08:22;16.42;;;6.53;;
55756;SDS011;41676;44.610;44.078;2022-07-12T03:13:23;29.30;;;7.00;;
55756;SDS011;41676;44.610;44.078;2022-07-12T03:18:23;17.17;;;7.00;;
55756;SDS011;41676;44.610;44.078;2022-07-12T03:23:24;20.13;;;6.80;;
55756;SDS011;41676;44.610;44.078;2022-07-12T03:28:25;18.13;;;7.25;;
55756;SDS011;41676;44.610;44.078;2022-07-12T03:33:26;15.98;;;7.43;;
55756;SDS011;41676;44.610;44.078;2022-07-12T03:38:27;12.05;;;6.45;;
55756;SDS011;41676;44.610;44.078;2022-07-12T03:43:28;16.35;;;6.38;;
55756;SDS011;41676;44.610;44.078;2022-07-12T03:48:28;12.82;;;6.18;;
55756;SDS011;41676;44.610;44.078;2022-07-12T03:53:29;9.65;;;6.53;;
55756;SDS011;41676;44.610;44.078;2022-07-12T03:58:30;8.30;;;5.97;;
55756;SDS011;41676;44.610;44.078;2022-07-12T04:03:31;8.85;;;5.38;;
55756;SDS011;41676;44.610;44.078;2022-07-12T04:08:31;10.50;;;6.18;;
55756;SDS011;41676;44.610;44.078;2022-07-12T04:13:32;11.18;;;5.00;;
55756;SDS011;41676;44.610;44.078;2022-07-12T04:18:34;19.33;;;9.57;;
55756;SDS011;41676;44.610;44.078;2022-07-12T04:23:34;7.32;;;4.95;;
55756;SDS011;41676;44.610;44.078;2022-07-12T04:28:35;10.25;;;4.70;;
55756;SDS011;41676;44.610;44.078;2022-07-12T04:33:36;6.13;;;4.38;;
55756;SDS011;41676;44.610;44.078;2022-07-12T04:38:37;8.55;;;4.40;;
55756;SDS011;41676;44.610;44.078;2022-07-12T04:43:37;7.10;;;4.45;;
55756;SDS011;41676;44.610;44.078;2022-07-12T04:48:38;8.98;;;4.63;;
55756;SDS011;41676;44.610;44.078;2022-07-12T04:53:39;8.05;;;4.95;;
55756;SDS011;41676;44.610;44.078;2022-07-12T04:58:40;7.25;;;4.78;;
55756;SDS011;41676;44.610;44.078;2022-07-12T05:03:40;6.00;;;4.30;;
55756;SDS011;41676;44.610;44.078;2022-07-12T05:08:41;8.60;;;4.50;;
55756;SDS011;41676;44.610;44.078;2022-07-12T05:13:42;7.68;;;4.97;;
55756;SDS011;41676;44.610;44.078;2022-07-12T05:18:43;8.40;;;4.38;;
55756;SDS011;41676;44.610;44.078;2022-07-12T05:23:43;8.15;;;4.65;;
55756;SDS011;41676;44.610;44.078;2022-07-12T05:28:44;8.35;;;4.32;;
55756;SDS011;41676;44.610;44.078;2022-07-12T05:33:45;6.25;;;4.70;;
55756;SDS011;41676;44.610;44.078;2022-07-12T05:38:46;6.75;;;4.30;;
55756;SDS011;41676;44.610;44.078;2022-07-12T05:43:47;7.45;;;4.60;;
55756;SDS011;41676;44.610;44.078;2022-07-12T05:48:48;5.75;;;4.45;;
55756;SDS011;41676;44.610;44.078;2022-07-12T05:53:48;5.93;;;4.05;;
55756;SDS011;41676;44.610;44.078;2022-07-12T05:58:49;5.70;;;4.10;;
55756;SDS011;41676;44.610;44.078;2022-07-12T06:03:50;6.88;;;4.13;;
55756;SDS011;41676;44.610;44.078;2022-07-12T06:08:51;10.02;;;4.28;;
55756;SDS011;41676;44.610;44.078;2022-07-12T06:13:52;5.97;;;4.20;;
55756;SDS011;41676;44.610;44.078;2022-07-12T06:18:53;9.70;;;4.50;;
55756;SDS011;41676;44.610;44.078;2022-07-12T06:23:54;7.60;;;3.97;;
55756;SDS011;41676;44.610;44.078;2022-07-12T06:28:55;7.60;;;3.90;;
55756;SDS011;41676;44.610;44.078;2022-07-12T06:33:56;8.55;;;4.40;;
55756;SDS011;41676;44.610;44.078;2022-07-12T06:38:56;10.98;;;3.95;;
55756;SDS011;41676;44.610;44.078;2022-07-12T06:43:57;8.90;;;4.55;;
55756;SDS011;41676;44.610;44.078;2022-07-12T06:48:58;5.47;;;3.88;;
55756;SDS011;41676;44.610;44.078;2022-07-12T06:53:59;8.05;;;3.88;;
55756;SDS011;41676;44.610;44.078;2022-07-12T06:58:59;9.15;;;4.20;;
55756;SDS011;41676;44.610;44.078;2022-07-12T07:04:00;6.13;;;3.78;;
55756;SDS011;41676;44.610;44.078;2022-07-12T07:09:01;8.88;;;3.95;;
55756;SDS011;41676;44.610;44.078;2022-07-12T07:14:02;5.63;;;3.88;;
55756;SDS011;41676;44.610;44.078;2022-07-12T07:19:04;6.63;;;3.97;;
55756;SDS011;41676;44.610;44.078;2022-07-12T07:24:05;6.50;;;3.77;;
55756;SDS011;41676;44.610;44.078;2022-07-12T07:29:06;14.07;;;3.63;;
55756;SDS011;41676;44.610;44.078;2022-07-12T07:34:26;9.57;;;3.40;;
55756;SDS011;41676;44.610;44.078;2022-07-12T07:39:27;11.80;;;4.50;;
55756;SDS011;41676;44.610;44.078;2022-07-12T07:44:27;6.80;;;3.50;;
55756;SDS011;41676;44.610;44.078;2022-07-12T07:49:28;4.82;;;3.20;;
55756;SDS011;41676;44.610;44.078;2022-07-12T07:54:29;7.18;;;3.15;;
55756;SDS011;41676;44.610;44.078;2022-07-12T07:59:30;11.77;;;3.28;;
55756;SDS011;41676;44.610;44.078;2022-07-12T08:04:30;11.93;;;3.35;;
55756;SDS011;41676;44.610;44.078;2022-07-12T08:09:31;5.13;;;3.30;;
55756;SDS011;41676;44.610;44.078;2022-07-12T08:14:32;5.75;;;3.28;;
55756;SDS011;41676;44.610;44.078;2022-07-12T08:19:33;8.10;;;3.70;;
55756;SDS011;41676;44.610;44.078;2022-07-12T08:24:34;5.75;;;3.10;;
55756;SDS011;41676;44.610;44.078;2022-07-12T08:29:34;9.82;;;3.83;;
55756;SDS011;41676;44.610;44.078;2022-07-12T08:34:35;7.18;;;3.55;;
55756;SDS011;41676;44.610;44.078;2022-07-12T08:39:36;27.02;;;5.28;;
55756;SDS011;41676;44.610;44.078;2022-07-12T08:44:37;12.50;;;4.38;;
55756;SDS011;41676;44.610;44.078;2022-07-12T08:49:39;13.50;;;4.25;;
55756;SDS011;41676;44.610;44.078;2022-07-12T08:54:40;6.57;;;3.50;;
55756;SDS011;41676;44.610;44.078;2022-07-12T08:59:41;9.63;;;4.03;;
55756;SDS011;41676;44.610;44.078;2022-07-12T09:04:47;28.02;;;5.03;;
55756;SDS011;41676;44.610;44.078;2022-07-12T09:09:48;8.60;;;3.35;;
55756;SDS011;41676;44.610;44.078;2022-07-12T09:14:52;6.97;;;3.33;;
55756;SDS011;41676;44.610;44.078;2022-07-12T09:19:54;7.63;;;2.80;;
55756;SDS011;41676;44.610;44.078;2022-07-12T09:24:56;5.40;;;2.83;;
55756;SDS011;41676;44.610;44.078;2022-07-12T09:29:57;9.88;;;3.33;;
55756;SDS011;41676;44.610;44.078;2022-07-12T09:34:58;10.63;;;3.38;;
55756;SDS011;41676;44.610;44.078;2022-07-12T09:40:18;16.60;;;3.88;;
55756;SDS011;41676;44.610;44.078;2022-07-12T09:45:20;9.63;;;3.33;;
55756;SDS011;41676;44.610;44.078;2022-07-12T09:50:21;9.25;;;3.40;;
55756;SDS011;41676;44.610;44.078;2022-07-12T09:55:22;7.15;;;3.10;;
55756;SDS011;41676;44.610;44.078;2022-07-12T10:00:25;8.20;;;3.08;;
55756;SDS011;41676;44.610;44.078;2022-07-12T10:05:26;7.50;;;3.33;;
55756;SDS011;41676;44.610;44.078;2022-07-12T10:10:29;7.28;;;3.30;;
55756;SDS011;41676;44.610;44.078;2022-07-12T10:15:31;21.57;;;3.17;;
55756;SDS011;41676;44.610;44.078;2022-07-12T10:20:33;124.93;;;11.63;;
55756;SDS011;41676;44.610;44.078;2022-07-12T10:25:42;8.55;;;3.47;;
55756;SDS011;41676;44.610;44.078;2022-07-12T10:30:44;6.35;;;2.83;;
55756;SDS011;41676;44.610;44.078;2022-07-12T10:36:04;10.68;;;3.55;;
55756;SDS011;41676;44.610;44.078;2022-07-12T10:41:16;5.53;;;3.40;;
55756;SDS011;41676;44.610;44.078;2022-07-12T10:51:23;6.35;;;3.10;;
55756;SDS011;41676;44.610;44.078;2022-07-12T10:56:25;6.97;;;2.80;;
55756;SDS011;41676;44.610;44.078;2022-07-12T11:01:27;21.67;;;3.67;;
55756;SDS011;41676;44.610;44.078;2022-07-12T11:06:29;7.53;;;3.20;;
55756;SDS011;41676;44.610;44.078;2022-07-12T11:11:34;6.30;;;3.00;;
55756;SDS011;41676;44.610;44.078;2022-07-12T11:16:43;9.73;;;4.07;;
55756;SDS011;41676;44.610;44.078;2022-07-12T11:21:45;14.63;;;3.65;;
55756;SDS011;41676;44.610;44.078;2022-07-12T11:26:49;7.20;;;2.90;;
55756;SDS011;41676;44.610;44.078;2022-07-12T11:31:59;7.35;;;2.97;;
55756;SDS011;41676;44.610;44.078;2022-07-12T11:37:07;4.95;;;2.90;;
55756;SDS011;41676;44.610;44.078;2022-07-12T11:42:08;6.25;;;2.70;;
55756;SDS011;41676;44.610;44.078;2022-07-12T11:47:13;8.93;;;3.10;;
55756;SDS011;41676;44.610;44.078;2022-07-12T11:52:15;7.80;;;2.88;;
55756;SDS011;41676;44.610;44.078;2022-07-12T11:57:21;13.60;;;3.90;;
55756;SDS011;41676;44.610;44.078;2022-07-12T12:02:26;7.45;;;3.00;;
55756;SDS011;41676;44.610;44.078;2022-07-12T12:07:29;7.40;;;3.00;;
55756;SDS011;41676;44.610;44.078;2022-07-12T12:12:37;11.50;;;3.10;;
55756;SDS011;41676;44.610;44.078;2022-07-12T12:18:04;6.43;;;2.95;;
55756;SDS011;41676;44.610;44.078;2022-07-12T12:23:09;8.02;;;2.65;;
55756;SDS011;41676;44.610;44.078;2022-07-12T12:28:19;7.90;;;2.97;;
55756;SDS011;41676;44.610;44.078;2022-07-12T12:33:36;19.85;;;3.33;;
55756;SDS011;41676;44.610;44.078;2022-07-12T12:38:38;7.05;;;2.70;;
55756;SDS011;41676;44.610;44.078;2022-07-12T12:43:39;6.80;;;3.10;;
55756;SDS011;41676;44.610;44.078;2022-07-12T12:48:47;6.05;;;3.20;;
55756;SDS011;41676;44.610;44.078;2022-07-12T12:53:54;5.20;;;2.60;;
55756;SDS011;41676;44.610;44.078;2022-07-12T12:58:57;18.20;;;2.70;;
55756;SDS011;41676;44.610;44.078;2022-07-12T13:03:58;11.88;;;2.53;;
55756;SDS011;41676;44.610;44.078;2022-07-12T13:08:58;10.73;;;2.40;;
55756;SDS011;41676;44.610;44.078;2022-07-12T13:13:59;5.82;;;2.50;;
55756;SDS011;41676;44.610;44.078;2022-07-12T13:19:00;16.00;;;3.17;;
55756;SDS011;41676;44.610;44.078;2022-07-12T13:24:01;5.97;;;2.58;;
55756;SDS011;41676;44.610;44.078;2022-07-12T13:29:03;9.82;;;2.80;;
55756;SDS011;41676;44.610;44.078;2022-07-12T13:34:04;17.88;;;2.90;;
55756;SDS011;41676;44.610;44.078;2022-07-12T13:39:06;23.20;;;4.25;;
55756;SDS011;41676;44.610;44.078;2022-07-12T13:44:25;15.40;;;3.53;;
55756;SDS011;41676;44.610;44.078;2022-07-12T13:49:26;17.35;;;3.55;;
55756;SDS011;41676;44.610;44.078;2022-07-12T13:54:27;10.68;;;3.85;;
55756;SDS011;41676;44.610;44.078;2022-07-12T13:59:28;16.33;;;7.72;;
55756;SDS011;41676;44.610;44.078;2022-07-12T14:04:28;42.25;;;8.63;;
55756;SDS011;41676;44.610;44.078;2022-07-12T14:09:29;14.13;;;5.32;;
55756;SDS011;41676;44.610;44.078;2022-07-12T14:14:30;17.95;;;4.47;;
55756;SDS011;41676;44.610;44.078;2022-07-12T14:19:50;22.65;;;4.50;;
55756;SDS011;41676;44.610;44.078;2022-07-12T14:24:51;22.63;;;4.10;;
55756;SDS011;41676;44.610;44.078;2022-07-12T14:29:51;18.08;;;3.13;;
55756;SDS011;41676;44.610;44.078;2022-07-12T14:34:52;11.73;;;3.22;;
55756;SDS011;41676;44.610;44.078;2022-07-12T14:39:53;24.80;;;4.30;;
55756;SDS011;41676;44.610;44.078;2022-07-12T14:44:54;19.13;;;4.18;;
55756;SDS011;41676;44.610;44.078;2022-07-12T14:49:55;16.33;;;4.95;;
55756;SDS011;41676;44.610;44.078;2022-07-12T14:54:56;12.70;;;4.47;;
55756;SDS011;41676;44.610;44.078;2022-07-12T14:59:57;16.50;;;4.22;;
55756;SDS011;41676;44.610;44.078;2022-07-12T15:04:58;16.52;;;3.75;;
55756;SDS011;41676;44.610;44.078;2022-07-12T15:10:03;13.40;;;3.72;;
55756;SDS011;41676;44.610;44.078;2022-07-12T15:15:05;16.60;;;4.28;;
55756;SDS011;41676;44.610;44.078;2022-07-12T15:20:06;10.20;;;3.20;;
55756;SDS011;41676;44.610;44.078;2022-07-12T15:25:07;10.80;;;3.60;;
55756;SDS011;41676;44.610;44.078;2022-07-12T15:30:09;11.43;;;3.63;;
55756;SDS011;41676;44.610;44.078;2022-07-12T15:35:10;13.32;;;3.90;;
55756;SDS011;41676;44.610;44.078;2022-07-12T15:40:11;9.90;;;3.78;;
55756;SDS011;41676;44.610;44.078;2022-07-12T15:45:12;28.70;;;4.07;;
55756;SDS011;41676;44.610;44.078;2022-07-12T15:50:13;9.80;;;3.78;;
55756;SDS011;41676;44.610;44.078;2022-07-12T15:55:14;11.75;;;3.58;;
55756;SDS011;41676;44.610;44.078;2022-07-12T16:00:15;32.80;;;4.55;;
55756;SDS011;41676;44.610;44.078;2022-07-12T16:05:15;24.92;;;5.88;;
55756;SDS011;41676;44.610;44.078;2022-07-12T16:10:17;11.95;;;4.82;;
55756;SDS011;41676;44.610;44.078;2022-07-12T16:15:17;10.60;;;4.32;;
55756;SDS011;41676;44.610;44.078;2022-07-12T16:20:18;8.82;;;4.38;;
55756;SDS011;41676;44.610;44.078;2022-07-12T16:25:19;10.32;;;5.60;;
55756;SDS011;41676;44.610;44.078;2022-07-12T16:30:23;12.15;;;5.40;;
55756;SDS011;41676;44.610;44.078;2022-07-12T16:35:24;15.82;;;6.00;;
55756;SDS011;41676;44.610;44.078;2022-07-12T16:40:25;18.70;;;6.03;;
55756;SDS011;41676;44.610;44.078;2022-07-12T16:45:25;16.27;;;6.78;;
55756;SDS011;41676;44.610;44.078;2022-07-12T16:55:29;14.73;;;6.60;;
55756;SDS011;41676;44.610;44.078;2022-07-12T17:00:30;19.10;;;7.32;;
55756;SDS011;41676;44.610;44.078;2022-07-12T17:05:31;14.07;;;5.78;;
55756;SDS011;41676;44.610;44.078;2022-07-12T17:10:32;10.35;;;5.25;;
55756;SDS011;41676;44.610;44.078;2022-07-12T17:15:33;18.13;;;6.90;;
55756;SDS011;41676;44.610;44.078;2022-07-12T17:20:33;11.27;;;5.88;;
55756;SDS011;41676;44.610;44.078;2022-07-12T17:25:35;15.82;;;5.72;;
55756;SDS011;41676;44.610;44.078;2022-07-12T17:30:36;9.77;;;4.45;;
55756;SDS011;41676;44.610;44.078;2022-07-12T17:35:38;9.20;;;4.28;;
55756;SDS011;41676;44.610;44.078;2022-07-12T17:40:40;8.55;;;4.32;;
55756;SDS011;41676;44.610;44.078;2022-07-12T17:45:41;11.07;;;4.43;;
55756;SDS011;41676;44.610;44.078;2022-07-12T17:50:42;12.90;;;3.67;;
55756;SDS011;41676;44.610;44.078;2022-07-12T17:55:43;13.82;;;4.20;;
55756;SDS011;41676;44.610;44.078;2022-07-12T18:00:44;7.00;;;3.50;;
55756;SDS011;41676;44.610;44.078;2022-07-12T18:05:44;9.10;;;4.60;;
55756;SDS011;41676;44.610;44.078;2022-07-12T18:10:45;9.32;;;4.25;;
55756;SDS011;41676;44.610;44.078;2022-07-12T18:15:46;10.05;;;4.28;;
55756;SDS011;41676;44.610;44.078;2022-07-12T18:20:47;8.20;;;3.72;;
55756;SDS011;41676;44.610;44.078;2022-07-12T18:25:52;7.78;;;3.42;;
55756;SDS011;41676;44.610;44.078;2022-07-12T18:30:53;10.07;;;3.63;;
55756;SDS011;41676;44.610;44.078;2022-07-12T18:35:56;8.87;;;3.77;;
55756;SDS011;41676;44.610;44.078;2022-07-12T18:40:57;9.75;;;5.43;;
55756;SDS011;41676;44.610;44.078;2022-07-12T18:45:59;12.13;;;4.80;;
55756;SDS011;41676;44.610;44.078;2022-07-12T18:51:01;13.20;;;5.45;;
55756;SDS011;41676;44.610;44.078;2022-07-12T18:56:01;14.55;;;5.30;;
55756;SDS011;41676;44.610;44.078;2022-07-12T19:01:02;15.63;;;6.07;;
55756;SDS011;41676;44.610;44.078;2022-07-12T19:06:03;12.48;;;5.80;;
55756;SDS011;41676;44.610;44.078;2022-07-12T19:11:04;15.05;;;6.50;;
55756;SDS011;41676;44.610;44.078;2022-07-12T19:16:05;16.55;;;5.45;;
55756;SDS011;41676;44.610;44.078;2022-07-12T19:21:06;12.00;;;4.00;;
55756;SDS011;41676;44.610;44.078;2022-07-12T19:26:07;10.50;;;3.60;;
55756;SDS011;41676;44.610;44.078;2022-07-12T19:31:08;14.38;;;4.50;;
55756;SDS011;41676;44.610;44.078;2022-07-12T19:36:09;13.18;;;4.63;;
55756;SDS011;41676;44.610;44.078;2022-07-12T19:41:09;10.40;;;3.67;;
55756;SDS011;41676;44.610;44.078;2022-07-12T19:46:10;9.05;;;3.50;;
55756;SDS011;41676;44.610;44.078;2022-07-12T19:51:12;12.35;;;3.60;;
55756;SDS011;41676;44.610;44.078;2022-07-12T19:56:14;14.13;;;3.85;;
55756;SDS011;41676;44.610;44.078;2022-07-12T20:01:14;7.72;;;3.50;;
55756;SDS011;41676;44.610;44.078;2022-07-12T20:06:16;11.32;;;3.53;;
55756;SDS011;41676;44.610;44.078;2022-07-12T20:11:17;16.00;;;4.05;;
55756;SDS011;41676;44.610;44.078;2022-07-12T20:16:17;9.00;;;3.97;;
55756;SDS011;41676;44.610;44.078;2022-07-12T20:21:18;10.05;;;4.18;;
55756;SDS011;41676;44.610;44.078;2022-07-12T20:26:19;15.50;;;4.10;;
55756;SDS011;41676;44.610;44.078;2022-07-12T20:31:20;8.38;;;4.07;;
55756;SDS011;41676;44.610;44.078;2022-07-12T20:36:21;10.15;;;4.75;;
55756;SDS011;41676;44.610;44.078;2022-07-12T20:41:22;19.23;;;4.88;;
55756;SDS011;41676;44.610;44.078;2022-07-12T20:46:23;9.73;;;4.15;;
55756;SDS011;41676;44.610;44.078;2022-07-12T20:51:24;11.00;;;4.30;;
55756;SDS011;41676;44.610;44.078;2022-07-12T20:56:25;9.65;;;3.72;;
55756;SDS011;41676;44.610;44.078;2022-07-12T21:01:25;11.75;;;3.92;;
55756;SDS011;41676;44.610;44.078;2022-07-12T21:06:26;12.48;;;3.25;;
55756;SDS011;41676;44.610;44.078;2022-07-12T21:11:29;9.20;;;3.03;;
55756;SDS011;41676;44.610;44.078;2022-07-12T21:16:33;7.70;;;3.30;;
55756;SDS011;41676;44.610;44.078;2022-07-12T21:21:37;10.35;;;3.53;;
55756;SDS011;41676;44.610;44.078;2022-07-12T21:26:37;8.20;;;3.25;;
55756;SDS011;41676;44.610;44.078;2022-07-12T21:31:39;6.75;;;2.83;;
55756;SDS011;41676;44.610;44.078;2022-07-12T21:36:41;5.13;;;2.90;;
55756;SDS011;41676;44.610;44.078;2022-07-12T21:41:44;6.18;;;2.85;;
55756;SDS011;41676;44.610;44.078;2022-07-12T21:46:45;6.47;;;2.65;;
55756;SDS011;41676;44.610;44.078;2022-07-12T21:51:46;6.22;;;2.70;;
55756;SDS011;41676;44.610;44.078;2022-07-12T21:56:47;7.03;;;3.00;;
55756;SDS011;41676;44.610;44.078;2022-07-12T22:01:48;4.53;;;2.60;;
55756;SDS011;41676;44.610;44.078;2022-07-12T22:06:49;7.60;;;2.75;;
55756;SDS011;41676;44.610;44.078;2022-07-12T22:11:50;5.80;;;2.60;;
55756;SDS011;41676;44.610;44.078;2022-07-12T22:16:51;6.80;;;2.80;;
55756;SDS011;41676;44.610;44.078;2022-07-12T22:21:52;5.50;;;2.47;;
55756;SDS011;41676;44.610;44.078;2022-07-12T22:26:52;3.83;;;2.13;;
55756;SDS011;41676;44.610;44.078;2022-07-12T22:31:54;8.20;;;2.17;;
55756;SDS011;41676;44.610;44.078;2022-07-12T22:36:54;4.65;;;2.67;;
55756;SDS011;41676;44.610;44.078;2022-07-12T22:41:55;5.10;;;2.60;;
55756;SDS011;41676;44.610;44.078;2022-07-12T22:46:56;4.63;;;2.67;;
55756;SDS011;41676;44.610;44.078;2022-07-12T22:51:57;6.32;;;2.95;;
55756;SDS011;41676;44.610;44.078;2022-07-12T22:56:58;6.70;;;2.85;;
55756;SDS011;41676;44.610;44.078;2022-07-12T23:01:59;7.68;;;3.00;;
55756;SDS011;41676;44.610;44.078;2022-07-12T23:07:00;5.72;;;2.90;;
55756;SDS011;41676;44.610;44.078;2022-07-12T23:12:00;11.23;;;3.20;;
55756;SDS011;41676;44.610;44.078;2022-07-12T23:17:01;15.07;;;3.83;;
55756;SDS011;41676;44.610;44.078;2022-07-12T23:22:02;6.90;;;3.30;;
55756;SDS011;41676;44.610;44.078;2022-07-12T23:27:03;11.20;;;3.55;;
55756;SDS011;41676;44.610;44.078;2022-07-12T23:32:04;4.93;;;3.10;;
55756;SDS011;41676;44.610;44.078;2022-07-12T23:37:05;14.77;;;3.15;;
